createdAt,value
2023-01-12T00:02:54.593Z,6.31
2023-01-12T00:06:07.864Z,6.25
2023-01-12T00:09:11.012Z,6.32
2023-01-12T00:12:13.865Z,6.21
2023-01-12T00:15:16.831Z,6.10
2023-01-12T00:18:19.674Z,6.03
2023-01-12T00:21:23.753Z,6.07
2023-01-12T00:24:27.751Z,6.19
2023-01-12T00:27:30.375Z,6.32
2023-01-12T00:30:33.363Z,6.51
2023-01-12T00:33:35.975Z,6.69
2023-01-12T00:36:39.862Z,6.79
2023-01-12T00:39:53.276Z,6.87
2023-01-12T00:43:20.917Z,7.04
2023-01-12T00:46:30.929Z,7.24
2023-01-12T00:49:33.710Z,7.40
2023-01-12T00:52:37.704Z,7.63
2023-01-12T00:55:40.426Z,7.66
2023-01-12T00:58:42.933Z,7.86
2023-01-12T01:01:45.918Z,7.96
2023-01-12T01:04:48.573Z,7.84
2023-01-12T01:07:52.578Z,7.81
2023-01-12T01:11:02.448Z,7.93
2023-01-12T01:14:05.141Z,8.06
2023-01-12T01:17:08.119Z,8.11
2023-01-12T01:20:12.465Z,8.18
2023-01-12T01:23:16.415Z,8.06
2023-01-12T01:26:21.307Z,7.70
2023-01-12T01:29:23.913Z,7.70
2023-01-12T01:32:26.422Z,7.72
2023-01-12T01:35:29.193Z,7.79
2023-01-12T01:38:33.847Z,7.83
2023-01-12T01:41:36.576Z,7.92
2023-01-12T01:44:54.881Z,7.85
2023-01-12T01:47:59.692Z,8.01
2023-01-12T01:51:05.447Z,8.14
2023-01-12T01:54:09.789Z,8.27
2023-01-12T01:57:12.648Z,8.24
2023-01-12T02:03:43.018Z,8.46
2023-01-12T02:06:45.663Z,8.41
2023-01-12T02:09:49.588Z,8.39
2023-01-12T02:13:09.636Z,8.55
2023-01-12T02:16:23.219Z,8.59
2023-01-12T02:20:01.417Z,8.30
2023-01-12T02:23:24.842Z,8.26
2023-01-12T02:27:07.955Z,8.25
2023-01-12T02:30:48.234Z,8.22
2023-01-12T02:34:02.064Z,8.14
2023-01-12T02:37:12.837Z,8.04
2023-01-12T02:40:21.917Z,8.10
2023-01-12T02:43:25.980Z,8.23
2023-01-12T02:46:31.983Z,8.29
2023-01-12T02:49:40.435Z,8.42
2023-01-12T02:52:45.411Z,8.31
2023-01-12T02:55:48.337Z,8.43
2023-01-12T02:58:54.767Z,8.29
2023-01-12T03:02:00.270Z,8.26
2023-01-12T03:05:04.412Z,8.24
2023-01-12T03:08:07.145Z,8.27
2023-01-12T03:11:13.197Z,8.26
2023-01-12T03:14:16.417Z,8.23
2023-01-12T03:17:26.040Z,8.21
2023-01-12T03:20:32.843Z,8.16
2023-01-12T03:23:40.144Z,8.22
2023-01-12T03:26:45.137Z,8.27
2023-01-12T03:29:51.273Z,8.09
2023-01-12T03:32:54.166Z,7.97
2023-01-12T03:36:07.232Z,7.82
2023-01-12T03:39:15.262Z,7.89
2023-01-12T03:42:21.481Z,7.77
2023-01-12T03:45:28.284Z,7.61
2023-01-12T03:48:33.428Z,7.66
2023-01-12T03:51:40.556Z,7.71
2023-01-12T03:54:44.206Z,7.78
2023-01-12T03:57:47.602Z,7.88
2023-01-12T04:00:50.384Z,7.99
2023-01-12T04:03:53.221Z,8.09
2023-01-12T04:06:57.563Z,8.20
2023-01-12T04:10:00.259Z,8.30
2023-01-12T04:13:03.095Z,8.42
2023-01-12T04:16:06.606Z,8.49
2023-01-12T04:19:09.289Z,8.46
2023-01-12T04:22:34.112Z,8.50
2023-01-12T04:25:37.135Z,8.58
2023-01-12T04:28:39.744Z,8.59
2023-01-12T04:31:42.468Z,8.72
2023-01-12T04:34:46.265Z,8.82
2023-01-12T04:37:50.295Z,8.70
2023-01-12T04:40:54.799Z,8.75
2023-01-12T04:43:57.378Z,8.69
2023-01-12T04:46:59.896Z,8.70
2023-01-12T04:50:02.479Z,8.72
2023-01-12T04:53:07.882Z,8.65
2023-01-12T04:56:10.606Z,8.70
2023-01-12T04:59:13.378Z,8.75
2023-01-12T05:02:16.087Z,8.74
2023-01-12T05:05:18.792Z,8.84
2023-01-12T05:08:40.340Z,8.73
2023-01-12T05:11:43.050Z,8.94
2023-01-12T05:14:45.712Z,8.73
2023-01-12T05:17:48.278Z,8.80
2023-01-12T05:20:51.222Z,9.00
2023-01-12T05:23:55.387Z,8.94
2023-01-12T05:26:58.601Z,9.25
2023-01-12T05:30:01.371Z,9.69
2023-01-12T05:33:04.013Z,9.91
2023-01-12T05:36:08.278Z,9.68
2023-01-12T05:39:12.607Z,9.48
2023-01-12T05:42:32.756Z,9.48
2023-01-12T05:45:35.506Z,9.44
2023-01-12T05:48:38.476Z,9.37
2023-01-12T05:51:41.615Z,9.40
2023-01-12T05:54:45.859Z,9.35
2023-01-12T05:57:48.514Z,9.35
2023-01-12T06:00:51.318Z,9.23
2023-01-12T06:03:55.838Z,9.16
2023-01-12T06:06:58.845Z,9.09
2023-01-12T06:10:02.854Z,9.02
2023-01-12T06:13:22.972Z,8.91
2023-01-12T06:16:26.119Z,8.99
2023-01-12T06:19:28.907Z,9.07
2023-01-12T06:22:31.617Z,9.07
2023-01-12T06:25:35.632Z,9.10
2023-01-12T06:28:39.542Z,9.16
2023-01-12T06:31:43.870Z,9.14
2023-01-12T06:34:47.226Z,9.18
2023-01-12T06:37:50.347Z,9.14
2023-01-12T06:40:57.195Z,9.12
2023-01-12T06:44:00.709Z,9.03
2023-01-12T06:47:03.551Z,9.19
2023-01-12T06:50:06.927Z,9.18
2023-01-12T06:53:09.619Z,9.02
2023-01-12T06:56:13.625Z,9.26
2023-01-12T06:59:16.676Z,9.33
2023-01-12T07:02:19.385Z,9.29
2023-01-12T07:05:22.098Z,9.35
2023-01-12T07:08:25.159Z,9.26
2023-01-12T07:11:29.240Z,9.40
2023-01-12T07:14:31.941Z,9.25
2023-01-12T07:17:35.387Z,9.35
2023-01-12T07:20:38.170Z,9.45
2023-01-12T07:23:42.247Z,9.60
2023-01-12T07:26:49.255Z,9.51
2023-01-12T07:29:53.287Z,9.59
2023-01-12T07:32:56.092Z,9.55
2023-01-12T07:35:59.788Z,9.73
2023-01-12T07:39:02.345Z,9.74
2023-01-12T07:42:25.123Z,9.88
2023-01-12T07:45:28.601Z,9.92
2023-01-12T07:48:31.347Z,9.96
2023-01-12T07:51:34.220Z,10.09
2023-01-12T07:54:37.979Z,10.15
2023-01-12T07:57:42.360Z,10.12
2023-01-12T08:00:45.571Z,10.04
2023-01-12T08:03:48.243Z,10.04
2023-01-12T08:06:50.788Z,10.12
2023-01-12T08:09:53.596Z,10.14
2023-01-12T08:12:57.648Z,10.18
2023-01-12T08:16:04.728Z,10.30
2023-01-12T08:19:12.084Z,10.43
2023-01-12T08:22:21.096Z,10.30
2023-01-12T08:25:28.000Z,10.39
2023-01-12T08:28:34.141Z,10.43
2023-01-12T08:31:37.488Z,10.47
2023-01-12T08:34:42.358Z,10.42
2023-01-12T08:37:45.266Z,10.33
2023-01-12T08:41:05.510Z,10.19
2023-01-12T08:44:10.940Z,10.33
2023-01-12T08:47:18.932Z,10.27
2023-01-12T08:50:21.579Z,10.38
2023-01-12T08:53:24.436Z,10.28
2023-01-12T08:56:27.194Z,10.18
2023-01-12T08:59:31.558Z,10.38
2023-01-12T09:02:34.318Z,10.24
2023-01-12T09:05:37.145Z,10.26
2023-01-12T09:08:39.737Z,10.34
2023-01-12T09:11:43.419Z,10.49
2023-01-12T09:14:47.615Z,10.56
2023-01-12T09:17:53.132Z,10.54
2023-01-12T09:21:01.383Z,10.30
2023-01-12T09:24:05.490Z,10.37
2023-01-12T09:27:08.656Z,10.44
2023-01-12T09:30:13.582Z,10.55
2023-01-12T09:33:17.152Z,10.57
2023-01-12T09:36:23.159Z,10.55
2023-01-12T09:39:28.351Z,10.57
2023-01-12T09:43:00.156Z,10.62
2023-01-12T09:46:22.067Z,10.60
2023-01-12T09:49:27.832Z,10.82
2023-01-12T09:52:33.209Z,10.67
2023-01-12T09:55:41.772Z,10.83
2023-01-12T09:59:15.184Z,10.96
2023-01-12T10:02:20.671Z,10.88
2023-01-12T10:05:38.841Z,11.05
2023-01-12T10:08:44.647Z,11.21
2023-01-12T10:11:51.887Z,11.32
2023-01-12T10:15:23.599Z,11.43
2023-01-12T10:18:32.287Z,11.25
2023-01-12T10:21:36.053Z,11.65
2023-01-12T10:24:39.171Z,11.46
2023-01-12T10:27:44.175Z,11.54
2023-01-12T10:30:48.200Z,11.64
2023-01-12T10:34:08.984Z,11.86
2023-01-12T10:37:12.544Z,11.60
2023-01-12T10:40:25.310Z,12.06
2023-01-12T10:43:32.573Z,12.00
2023-01-12T10:46:35.994Z,12.02
2023-01-12T10:49:40.220Z,11.90
2023-01-12T10:52:43.262Z,11.89
2023-01-12T10:55:47.821Z,11.79
2023-01-12T10:58:55.167Z,12.08
2023-01-12T11:02:16.011Z,11.81
2023-01-12T11:05:36.705Z,11.98
2023-01-12T11:08:40.062Z,11.99
2023-01-12T11:11:42.717Z,11.82
2023-01-12T11:14:58.161Z,11.98
2023-01-12T11:18:07.663Z,12.11
2023-01-12T11:21:12.819Z,12.01
2023-01-12T11:24:21.499Z,11.80
2023-01-12T11:27:29.763Z,11.83
2023-01-12T11:30:36.809Z,11.80
2023-01-12T11:33:41.593Z,11.71
2023-01-12T11:36:48.078Z,12.06
2023-01-12T11:39:53.231Z,11.96
2023-01-12T11:43:15.376Z,11.84
2023-01-12T11:46:26.760Z,11.88
2023-01-12T11:49:34.497Z,12.01
2023-01-12T11:52:38.582Z,12.31
2023-01-12T11:55:56.495Z,12.06
2023-01-12T11:59:03.090Z,12.04
2023-01-12T12:02:17.657Z,12.12
2023-01-12T12:05:28.858Z,12.27
2023-01-12T12:08:43.188Z,11.76
2023-01-12T12:11:52.863Z,11.61
2023-01-12T12:15:08.475Z,11.64
2023-01-12T12:18:21.172Z,11.86
2023-01-12T12:21:37.401Z,12.01
2023-01-12T12:25:16.614Z,11.92
2023-01-12T12:28:38.710Z,12.30
2023-01-12T12:31:50.091Z,12.29
2023-01-12T12:35:05.288Z,11.82
2023-01-12T12:38:19.603Z,12.11
2023-01-12T12:42:00.058Z,11.96
2023-01-12T12:45:19.035Z,12.11
2023-01-12T12:48:27.532Z,12.21
2023-01-12T12:51:31.600Z,12.51
2023-01-12T12:54:35.075Z,12.53
2023-01-12T12:58:04.299Z,12.16
2023-01-12T13:01:43.765Z,12.29
2023-01-12T13:05:06.392Z,12.33
2023-01-12T13:08:19.741Z,12.49
2023-01-12T13:11:50.514Z,12.39
2023-01-12T13:15:21.331Z,12.24
2023-01-12T13:18:43.616Z,12.22
2023-01-12T13:21:58.404Z,12.35
2023-01-12T13:25:02.405Z,12.14
2023-01-12T13:28:18.077Z,12.12
2023-01-12T13:31:34.691Z,12.18
2023-01-12T13:34:46.266Z,12.00
2023-01-12T13:37:53.437Z,12.11
2023-01-12T13:41:03.053Z,12.20
2023-01-12T13:44:07.680Z,12.25
2023-01-12T13:47:17.121Z,12.04
2023-01-12T13:50:22.072Z,12.12
2023-01-12T13:53:28.483Z,12.07
2023-01-12T13:56:32.909Z,12.06
2023-01-12T13:59:35.626Z,12.19
2023-01-12T14:02:40.000Z,12.00
2023-01-12T14:05:52.558Z,12.04
2023-01-12T14:09:03.404Z,12.09
2023-01-12T14:12:28.504Z,12.00
2023-01-12T14:15:54.986Z,11.89
2023-01-12T14:18:59.350Z,11.86
2023-01-12T14:22:05.700Z,11.70
2023-01-12T14:25:15.304Z,11.79
2023-01-12T14:28:19.231Z,11.65
2023-01-12T14:31:28.604Z,11.59
2023-01-12T14:34:34.895Z,11.61
2023-01-12T14:37:39.119Z,11.71
2023-01-12T14:40:42.007Z,11.69
2023-01-12T14:44:04.300Z,11.50
2023-01-12T14:47:07.995Z,11.70
2023-01-12T14:50:19.695Z,11.68
2023-01-12T14:53:34.536Z,11.51
2023-01-12T14:56:42.916Z,11.45
2023-01-12T14:59:47.202Z,11.48
2023-01-12T15:06:19.750Z,11.26
2023-01-12T15:09:28.319Z,11.42
2023-01-12T15:12:47.318Z,11.47
2023-01-12T15:16:09.350Z,11.31
2023-01-12T15:19:29.603Z,11.44
2023-01-12T15:22:51.382Z,11.42
2023-01-12T15:25:54.056Z,11.35
2023-01-12T15:28:56.882Z,11.39
2023-01-12T15:32:00.131Z,11.27
2023-01-12T15:38:32.102Z,11.27
2023-01-12T15:41:52.164Z,11.32
2023-01-12T15:44:55.175Z,11.20
2023-01-12T15:47:57.935Z,11.27
2023-01-12T15:51:00.668Z,11.10
2023-01-12T15:54:05.094Z,11.20
2023-01-12T15:57:09.283Z,10.99
2023-01-12T16:00:16.592Z,10.99
2023-01-12T16:03:49.034Z,11.08
2023-01-12T16:06:42.125Z,11.01
2023-01-12T16:09:48.025Z,10.96
2023-01-12T16:12:50.559Z,10.93
2023-01-12T16:15:53.442Z,10.82
2023-01-12T16:18:58.512Z,10.95
2023-01-12T16:22:01.212Z,10.95
2023-01-12T16:25:06.131Z,11.02
2023-01-12T16:28:09.415Z,10.88
2023-01-12T16:31:13.957Z,10.86
2023-01-12T16:34:18.292Z,10.83
2023-01-12T16:37:23.149Z,10.97
2023-01-12T16:40:27.285Z,10.85
2023-01-12T16:43:30.805Z,10.87
2023-01-12T16:46:33.660Z,10.99
2023-01-12T16:49:36.396Z,10.94
2023-01-12T16:52:39.078Z,10.88
2023-01-12T16:55:43.359Z,10.86
2023-01-12T16:58:48.273Z,10.87
2023-01-12T17:01:51.982Z,10.90
2023-01-12T17:04:54.864Z,10.93
2023-01-12T17:07:57.676Z,10.95
2023-01-12T17:11:06.909Z,10.99
2023-01-12T17:14:24.246Z,10.97
2023-01-12T17:17:27.392Z,10.85
2023-01-12T17:20:30.256Z,11.01
2023-01-12T17:23:34.649Z,10.98
2023-01-12T17:26:40.423Z,10.94
2023-01-12T17:29:43.521Z,10.94
2023-01-12T17:32:46.230Z,10.87
2023-01-12T17:35:49.123Z,11.02
2023-01-12T17:38:51.795Z,10.96
2023-01-12T17:42:13.288Z,11.06
2023-01-12T17:45:15.961Z,11.04
2023-01-12T17:48:19.664Z,10.96
2023-01-12T17:51:22.208Z,10.92
2023-01-12T17:54:24.967Z,10.95
2023-01-12T17:57:29.916Z,10.97
2023-01-12T18:00:33.308Z,11.02
2023-01-12T18:03:36.236Z,11.06
2023-01-12T18:06:38.837Z,11.13
2023-01-12T18:09:42.112Z,11.01
2023-01-12T18:12:46.697Z,11.02
2023-01-12T18:15:49.569Z,11.12
2023-01-12T18:18:53.189Z,11.07
2023-01-12T18:21:55.884Z,11.13
2023-01-12T18:24:58.735Z,11.17
2023-01-12T18:28:02.934Z,11.26
2023-01-12T18:31:07.932Z,11.26
2023-01-12T18:34:11.699Z,11.35
2023-01-12T18:37:14.955Z,11.39
2023-01-12T18:40:17.828Z,11.34
2023-01-12T18:43:21.098Z,11.46
2023-01-12T18:46:45.020Z,11.36
2023-01-12T18:49:48.518Z,11.28
2023-01-12T18:53:09.219Z,11.35
2023-01-12T18:56:11.804Z,11.43
2023-01-12T18:59:16.395Z,11.28
2023-01-12T19:02:20.053Z,11.47
2023-01-12T19:05:27.174Z,11.50
2023-01-12T19:08:47.602Z,11.48
2023-01-12T19:11:50.217Z,11.55
2023-01-12T19:15:20.149Z,11.58
2023-01-12T19:18:23.201Z,11.52
2023-01-12T19:21:43.172Z,11.61
2023-01-12T19:25:03.296Z,11.63
2023-01-12T19:28:26.211Z,11.64
2023-01-12T19:31:30.473Z,11.68
2023-01-12T19:34:33.117Z,11.54
2023-01-12T19:37:36.029Z,11.36
2023-01-12T19:40:45.381Z,11.64
2023-01-12T19:43:48.502Z,11.59
2023-01-12T19:46:53.132Z,11.52
2023-01-12T19:49:55.927Z,11.65
2023-01-12T19:52:58.541Z,11.59
2023-01-12T19:56:01.720Z,11.51
2023-01-12T19:59:04.500Z,11.54
2023-01-12T20:02:10.811Z,11.46
2023-01-12T20:05:21.935Z,11.69
2023-01-12T20:08:26.109Z,11.67
2023-01-12T20:11:29.997Z,11.51
2023-01-12T20:14:33.130Z,11.63
2023-01-12T20:17:37.379Z,11.74
2023-01-12T20:20:42.143Z,11.67
2023-01-12T20:23:44.816Z,11.58
2023-01-12T20:26:47.695Z,11.72
2023-01-12T20:29:50.930Z,11.61
2023-01-12T20:32:55.017Z,11.59
2023-01-12T20:35:58.297Z,11.52
2023-01-12T20:39:01.517Z,11.51
2023-01-12T20:42:04.504Z,11.41
2023-01-12T20:45:09.151Z,11.42
2023-01-12T20:48:14.854Z,11.50
2023-01-12T20:51:18.098Z,11.40
2023-01-12T20:54:20.950Z,11.40
2023-01-12T20:57:24.068Z,11.27
2023-01-12T21:00:28.900Z,11.32
2023-01-12T21:03:33.218Z,11.41
2023-01-12T21:06:36.125Z,11.42
2023-01-12T21:09:39.058Z,11.33
2023-01-12T21:12:42.271Z,11.34
2023-01-12T21:15:45.105Z,11.34
2023-01-12T21:18:49.350Z,11.31
2023-01-12T21:21:52.261Z,11.29
2023-01-12T21:24:54.994Z,11.18
2023-01-12T21:27:57.941Z,11.01
2023-01-12T21:31:01.995Z,11.07
2023-01-12T21:34:06.087Z,11.09
2023-01-12T21:37:08.794Z,11.06
2023-01-12T21:40:14.339Z,11.21
2023-01-12T21:43:18.328Z,11.21
2023-01-12T21:46:22.339Z,11.02
2023-01-12T21:49:26.551Z,11.13
2023-01-12T21:52:32.982Z,11.19
2023-01-12T21:55:36.087Z,11.14
2023-01-12T21:58:39.297Z,11.02
2023-01-12T22:01:42.228Z,11.15
2023-01-12T22:04:46.199Z,11.21
2023-01-12T22:07:49.322Z,11.19
2023-01-12T22:10:51.985Z,11.13
2023-01-12T22:13:54.765Z,11.16
2023-01-12T22:16:57.470Z,11.25
2023-01-12T22:20:01.787Z,11.22
2023-01-12T22:23:04.478Z,11.23
2023-01-12T22:26:10.037Z,11.15
2023-01-12T22:29:13.059Z,11.28
2023-01-12T22:32:15.786Z,11.34
2023-01-12T22:35:20.092Z,11.32
2023-01-12T22:38:22.981Z,11.23
2023-01-12T22:41:26.813Z,11.33
2023-01-12T22:44:29.757Z,11.32
2023-01-12T22:47:47.052Z,11.31
2023-01-12T22:50:54.322Z,11.44
2023-01-12T22:53:57.660Z,11.43
2023-01-12T22:57:01.593Z,11.41
2023-01-12T23:00:05.612Z,11.42
2023-01-12T23:03:09.894Z,11.41
2023-01-12T23:06:15.936Z,11.46
2023-01-12T23:09:19.073Z,11.47
2023-01-12T23:12:21.768Z,11.51
2023-01-12T23:15:24.433Z,11.49
2023-01-12T23:18:29.440Z,11.36
2023-01-12T23:21:33.541Z,11.51
2023-01-12T23:24:38.209Z,11.43
2023-01-12T23:27:40.874Z,11.60
2023-01-12T23:30:44.080Z,11.52
2023-01-12T23:33:47.050Z,11.47
2023-01-12T23:36:51.114Z,11.21
2023-01-12T23:39:54.107Z,11.34
2023-01-12T23:42:57.113Z,11.43
2023-01-12T23:46:00.967Z,11.49
2023-01-12T23:49:04.427Z,11.56
2023-01-12T23:52:08.588Z,11.54
2023-01-12T23:55:11.385Z,11.57
2023-01-12T23:58:14.331Z,11.69
